Time;durP1;ratioP1;P1;durP2;ratioP2;P2;SDS_P1;SDS_P2;PMS_P1;PMS_P2;Temp;Humidity;BMP_temperature;BMP_pressure;BME280_temperature;BME280_humidity;BME280_pressure;Samples;Min_cycle;Max_cycle;Signal;HPM_P1;HPM_P2
2022/04/11 00:02:24;;;;;;;4.93;2.03;;;;;;;;;;4938580;29;20205;-87
2022/04/11 00:04:54;;;;;;;1.37;1.37;;;;;;;;;;4954863;28;20206;-87
2022/04/11 00:07:23;;;;;;;1.17;1.17;;;;;;;;;;4957574;28;20252;-87
2022/04/11 00:09:51;;;;;;;0.80;0.80;;;;;;;;;;4963603;28;20203;-87
2022/04/11 00:12:19;;;;;;;0.90;0.90;;;;;;;;;;4971447;28;20203;-87
2022/04/11 00:14:48;;;;;;;1.20;1.20;;;;;;;;;;4938525;29;20210;-87
2022/04/11 00:17:16;;;;;;;0.90;0.90;;;;;;;;;;4963814;28;20209;-87
2022/04/11 00:19:45;;;;;;;2.37;2.17;;;;;;;;;;4973852;28;20263;-87
2022/04/11 00:22:15;;;;;;;1.23;1.13;;;;;;;;;;4973487;28;20233;-87
2022/04/11 00:24:43;;;;;;;1.53;1.53;;;;;;;;;;4957770;28;20204;-87
2022/04/11 00:27:11;;;;;;;0.80;0.80;;;;;;;;;;4938242;29;20235;-87
2022/04/11 00:29:40;;;;;;;0.93;0.93;;;;;;;;;;4955230;28;20203;-87
2022/04/11 00:32:08;;;;;;;1.03;1.03;;;;;;;;;;4938323;29;20206;-87
2022/04/11 00:34:37;;;;;;;0.87;0.87;;;;;;;;;;4938360;29;20268;-87
2022/04/11 00:37:05;;;;;;;0.80;0.80;;;;;;;;;;4937988;29;20202;-87
2022/04/11 00:39:35;;;;;;;0.80;0.80;;;;;;;;;;4938428;29;20287;-87
2022/04/11 00:42:08;;;;;;;0.90;0.90;;;;;;;;;;4940302;28;20198;-87
2022/04/11 00:44:36;;;;;;;0.70;0.70;;;;;;;;;;4974552;28;20217;-87
2022/04/11 00:47:05;;;;;;;0.80;0.80;;;;;;;;;;4973107;28;20228;-87
2022/04/11 00:49:33;;;;;;;0.80;0.80;;;;;;;;;;4957511;28;20246;-87
2022/04/11 00:52:02;;;;;;;1.20;1.20;;;;;;;;;;4957305;28;20212;-87
2022/04/11 00:54:31;;;;;;;1.97;1.87;;;;;;;;;;4957383;28;20198;-87
2022/04/11 00:57:01;;;;;;;0.93;0.93;;;;;;;;;;4957207;28;20198;-87
2022/04/11 00:59:30;;;;;;;0.90;0.90;;;;;;;;;;4957465;28;20244;-87
2022/04/11 01:01:58;;;;;;;0.80;0.80;;;;;;;;;;4957267;28;20229;-87
2022/04/11 01:04:27;;;;;;;0.80;0.80;;;;;;;;;;4957091;28;20211;-87
2022/04/11 01:07:00;;;;;;;0.80;0.80;;;;;;;;;;4956834;28;20245;-87
2022/04/11 01:09:29;;;;;;;0.80;0.80;;;;;;;;;;4957230;28;20216;-87
2022/04/11 01:11:57;;;;;;;0.80;0.80;;;;;;;;;;4957432;28;20212;-87
2022/04/11 01:14:27;;;;;;;1.47;1.47;;;;;;;;;;4974081;28;20220;-88
2022/04/11 01:16:57;;;;;;;0.90;0.90;;;;;;;;;;4966237;28;20201;-88
2022/04/11 01:19:25;;;;;;;0.80;0.80;;;;;;;;;;4937740;29;20209;-88
2022/04/11 01:21:55;;;;;;;0.90;0.90;;;;;;;;;;4954772;29;20320;-87
2022/04/11 01:24:24;;;;;;;1.00;1.00;;;;;;;;;;4954604;28;20214;-87
2022/04/11 01:26:52;;;;;;;1.67;1.67;;;;;;;;;;4938123;29;20226;-87
2022/04/11 01:29:21;;;;;;;1.53;1.43;;;;;;;;;;4937586;29;20198;-88
2022/04/11 01:31:49;;;;;;;0.80;0.80;;;;;;;;;;4937749;29;20206;-88
2022/04/11 01:34:18;;;;;;;5.63;2.27;;;;;;;;;;4937899;29;20211;-88
2022/04/11 01:36:47;;;;;;;0.90;0.90;;;;;;;;;;4937755;29;20199;-88
2022/04/11 01:39:17;;;;;;;1.17;1.10;;;;;;;;;;4937443;29;20235;-87
2022/04/11 01:41:45;;;;;;;3.33;3.00;;;;;;;;;;4940172;29;20216;-88
2022/04/11 01:44:14;;;;;;;1.13;1.13;;;;;;;;;;4958288;29;20194;-87
2022/04/11 01:46:46;;;;;;;1.00;1.00;;;;;;;;;;4958201;28;20202;-87
2022/04/11 01:49:14;;;;;;;0.80;0.80;;;;;;;;;;4956996;29;20202;-88
2022/04/11 01:51:42;;;;;;;1.00;1.00;;;;;;;;;;4957239;29;20202;-88
2022/04/11 01:54:11;;;;;;;1.00;1.00;;;;;;;;;;4956495;29;20233;-87
2022/04/11 01:56:41;;;;;;;1.70;1.60;;;;;;;;;;4941195;29;20206;-87
2022/04/11 01:59:09;;;;;;;0.80;0.80;;;;;;;;;;4958061;29;20207;-88
2022/04/11 02:01:38;;;;;;;1.10;1.10;;;;;;;;;;4957573;28;20209;-88
2022/04/11 02:04:06;;;;;;;0.80;0.80;;;;;;;;;;4940422;29;20231;-88
2022/04/11 02:06:35;;;;;;;0.80;0.80;;;;;;;;;;4940679;29;20219;-88
2022/04/11 02:09:03;;;;;;;0.80;0.80;;;;;;;;;;4957486;29;20230;-88
2022/04/11 02:11:32;;;;;;;1.97;1.97;;;;;;;;;;4958032;29;20210;-87
2022/04/11 02:14:01;;;;;;;0.90;0.90;;;;;;;;;;4940546;29;20300;-87
2022/04/11 02:16:30;;;;;;;0.80;0.80;;;;;;;;;;4945213;28;20206;-87
2022/04/11 02:18:58;;;;;;;1.20;1.20;;;;;;;;;;4959931;28;20230;-88
2022/04/11 02:21:27;;;;;;;1.07;1.07;;;;;;;;;;4956316;29;20301;-88
2022/04/11 02:23:55;;;;;;;1.03;1.03;;;;;;;;;;4956420;29;20210;-87
2022/04/11 02:26:24;;;;;;;0.70;0.70;;;;;;;;;;4956652;29;20210;-88
2022/04/11 02:28:52;;;;;;;0.80;0.80;;;;;;;;;;4955899;29;20221;-87
2022/04/11 02:31:22;;;;;;;0.80;0.80;;;;;;;;;;4956494;29;20203;-87
2022/04/11 02:33:50;;;;;;;1.27;1.27;;;;;;;;;;4972509;28;20296;-88
2022/04/11 02:36:18;;;;;;;1.20;1.20;;;;;;;;;;4972112;28;20198;-87
2022/04/11 02:38:47;;;;;;;0.80;0.80;;;;;;;;;;4972151;28;20202;-88
2022/04/11 02:41:17;;;;;;;0.80;0.80;;;;;;;;;;4957102;29;20207;-88
2022/04/11 02:43:46;;;;;;;3.87;3.60;;;;;;;;;;4956066;29;20214;-87
2022/04/11 02:46:15;;;;;;;1.57;1.47;;;;;;;;;;4956850;29;20270;-87
2022/04/11 02:48:45;;;;;;;0.80;0.80;;;;;;;;;;4955752;29;20310;-87
2022/04/11 02:51:13;;;;;;;0.90;0.90;;;;;;;;;;4956079;29;20225;-87
2022/04/11 02:53:42;;;;;;;0.73;0.73;;;;;;;;;;4971083;28;20205;-87
2022/04/11 02:56:10;;;;;;;1.33;1.33;;;;;;;;;;4956035;29;20212;-88
2022/04/11 02:58:39;;;;;;;0.90;0.90;;;;;;;;;;4955649;29;20202;-88
2022/04/11 03:01:07;;;;;;;1.20;1.20;;;;;;;;;;4955703;29;20218;-88
2022/04/11 03:03:37;;;;;;;0.87;0.87;;;;;;;;;;4971679;28;20195;-88
2022/04/11 03:06:07;;;;;;;1.00;1.00;;;;;;;;;;4971836;28;20221;-88
2022/04/11 03:08:35;;;;;;;0.70;0.70;;;;;;;;;;4955764;29;20222;-88
2022/04/11 03:11:04;;;;;;;0.80;0.80;;;;;;;;;;4956739;29;20209;-87
2022/04/11 03:13:32;;;;;;;0.80;0.80;;;;;;;;;;4956745;29;20202;-88
2022/04/11 03:16:01;;;;;;;0.90;0.90;;;;;;;;;;4970930;28;20301;-88
2022/04/11 03:18:29;;;;;;;1.47;1.37;;;;;;;;;;4936570;29;20207;-87
2022/04/11 03:20:58;;;;;;;0.80;0.80;;;;;;;;;;4937027;29;20202;-87
2022/04/11 03:23:28;;;;;;;0.80;0.80;;;;;;;;;;4955573;29;20211;-87
2022/04/11 03:25:56;;;;;;;0.70;0.70;;;;;;;;;;4955462;29;20196;-87
2022/04/11 03:28:25;;;;;;;0.80;0.80;;;;;;;;;;4939453;29;20227;-88
2022/04/11 03:30:53;;;;;;;0.70;0.70;;;;;;;;;;4939327;29;20212;-88
2022/04/11 03:33:22;;;;;;;0.80;0.80;;;;;;;;;;4956660;29;20206;-88
2022/04/11 03:35:51;;;;;;;1.77;1.77;;;;;;;;;;4938978;29;20198;-88
2022/04/11 03:38:19;;;;;;;0.77;0.77;;;;;;;;;;4956075;29;20204;-87
2022/04/11 03:40:49;;;;;;;0.80;0.80;;;;;;;;;;4955115;29;20207;-88
2022/04/11 03:43:17;;;;;;;0.90;0.90;;;;;;;;;;4954759;29;20211;-87
2022/04/11 03:45:46;;;;;;;0.80;0.80;;;;;;;;;;4955094;29;20224;-88
2022/04/11 03:48:14;;;;;;;0.70;0.70;;;;;;;;;;4938585;29;20226;-88
2022/04/11 03:50:42;;;;;;;1.00;1.00;;;;;;;;;;4939002;29;20203;-87
2022/04/11 03:53:11;;;;;;;1.10;1.10;;;;;;;;;;4938835;29;20212;-88
2022/04/11 03:55:39;;;;;;;0.80;0.80;;;;;;;;;;4938964;29;20206;-88
2022/04/11 03:58:09;;;;;;;0.80;0.80;;;;;;;;;;4954873;29;20194;-88
2022/04/11 04:00:37;;;;;;;1.10;1.10;;;;;;;;;;4938917;29;20282;-87
2022/04/11 04:03:07;;;;;;;0.70;0.70;;;;;;;;;;4938443;28;20213;-88
2022/04/11 04:05:40;;;;;;;1.33;1.33;;;;;;;;;;4938646;29;20235;-88
2022/04/11 04:08:09;;;;;;;1.77;1.67;;;;;;;;;;4938699;29;20231;-88
2022/04/11 04:10:37;;;;;;;3.50;1.47;;;;;;;;;;4938415;29;20239;-87
2022/04/11 04:13:06;;;;;;;1.33;1.33;;;;;;;;;;4938240;29;20213;-88
2022/04/11 04:15:36;;;;;;;1.50;1.33;;;;;;;;;;4954504;29;20309;-87
2022/04/11 04:18:04;;;;;;;0.90;0.90;;;;;;;;;;4957562;28;20217;-88
2022/04/11 04:20:33;;;;;;;0.80;0.80;;;;;;;;;;4957268;28;20202;-88
2022/04/11 04:23:01;;;;;;;1.27;1.27;;;;;;;;;;4957412;28;20247;-88
2022/04/11 04:25:30;;;;;;;1.33;1.33;;;;;;;;;;4957591;28;20206;-88
2022/04/11 04:27:58;;;;;;;1.57;1.47;;;;;;;;;;4957306;28;20214;-87
2022/04/11 04:30:28;;;;;;;2.57;1.33;;;;;;;;;;4957871;28;20214;-88
2022/04/11 04:32:58;;;;;;;2.30;2.13;;;;;;;;;;4957649;28;20256;-88
2022/04/11 04:35:28;;;;;;;1.43;1.43;;;;;;;;;;4957499;28;20214;-87
2022/04/11 04:37:56;;;;;;;1.00;1.00;;;;;;;;;;4957624;28;20198;-88
2022/04/11 04:40:24;;;;;;;0.90;0.90;;;;;;;;;;4957726;28;20222;-88
2022/04/11 04:42:53;;;;;;;1.47;1.47;;;;;;;;;;4957677;28;20205;-87
2022/04/11 04:45:23;;;;;;;2.27;1.83;;;;;;;;;;4957417;28;20197;-88
2022/04/11 04:47:51;;;;;;;1.53;1.53;;;;;;;;;;4957775;28;20214;-88
2022/04/11 04:50:21;;;;;;;1.67;1.57;;;;;;;;;;4974154;28;20229;-87
2022/04/11 04:52:49;;;;;;;3.33;3.13;;;;;;;;;;4974985;28;20206;-88
2022/04/11 04:55:18;;;;;;;1.60;1.60;;;;;;;;;;4957412;28;20205;-87
2022/04/11 04:57:46;;;;;;;1.30;1.23;;;;;;;;;;4973982;28;20201;-87
2022/04/11 05:00:15;;;;;;;4.03;3.67;;;;;;;;;;4957416;28;20217;-87
2022/04/11 05:02:44;;;;;;;1.47;1.47;;;;;;;;;;4957077;28;20209;-87
2022/04/11 05:05:13;;;;;;;1.73;1.67;;;;;;;;;;4957041;28;20227;-87
2022/04/11 05:07:43;;;;;;;1.73;1.63;;;;;;;;;;4957257;28;20206;-87
2022/04/11 05:10:16;;;;;;;2.80;2.60;;;;;;;;;;4956832;28;20283;-87
2022/04/11 05:12:45;;;;;;;2.50;2.30;;;;;;;;;;4957205;28;20265;-86
2022/04/11 05:15:15;;;;;;;1.53;1.43;;;;;;;;;;4957202;28;20305;-86
2022/04/11 05:17:43;;;;;;;2.43;2.13;;;;;;;;;;4946617;29;20198;-87
2022/04/11 05:20:12;;;;;;;1.83;1.73;;;;;;;;;;4957673;28;20212;-87
2022/04/11 05:22:40;;;;;;;2.10;2.00;;;;;;;;;;4957970;28;20242;-87
2022/04/11 05:25:10;;;;;;;1.57;1.57;;;;;;;;;;4957777;28;20203;-87
2022/04/11 05:27:39;;;;;;;3.97;3.13;;;;;;;;;;4956952;28;20208;-87
2022/04/11 05:30:08;;;;;;;5.27;4.77;;;;;;;;;;4958191;28;20227;-87
2022/04/11 05:32:36;;;;;;;2.47;2.37;;;;;;;;;;4941389;29;20281;-87
2022/04/11 05:35:05;;;;;;;1.10;1.10;;;;;;;;;;4958301;28;20203;-87
2022/04/11 05:37:35;;;;;;;1.30;1.30;;;;;;;;;;4941318;29;20203;-87
2022/04/11 05:40:03;;;;;;;3.63;3.13;;;;;;;;;;4940866;29;20290;-87
2022/04/11 05:42:34;;;;;;;2.63;2.43;;;;;;;;;;4941245;29;20216;-87
2022/04/11 05:45:03;;;;;;;2.80;2.60;;;;;;;;;;4956802;28;20208;-86
2022/04/11 05:47:31;;;;;;;1.53;1.53;;;;;;;;;;4956888;28;20205;-87
2022/04/11 05:50:00;;;;;;;2.00;1.87;;;;;;;;;;4957477;28;20221;-87
2022/04/11 05:52:28;;;;;;;1.33;1.30;;;;;;;;;;4941006;29;20215;-87
2022/04/11 05:54:56;;;;;;;1.57;1.57;;;;;;;;;;4956748;28;20206;-87
2022/04/11 05:57:25;;;;;;;0.70;0.70;;;;;;;;;;4957022;28;20298;-87
2022/04/11 05:59:55;;;;;;;1.57;1.57;;;;;;;;;;4940367;29;20289;-87
2022/04/11 06:02:23;;;;;;;2.27;2.07;;;;;;;;;;4940372;29;20199;-87
2022/04/11 06:04:52;;;;;;;7.03;2.90;;;;;;;;;;4956520;28;20233;-87
2022/04/11 06:07:21;;;;;;;3.90;2.13;;;;;;;;;;4957510;28;20296;-87
2022/04/11 06:09:50;;;;;;;2.97;2.80;;;;;;;;;;4957248;28;20214;-86
2022/04/11 06:12:20;;;;;;;3.90;3.47;;;;;;;;;;4956643;28;20215;-87
2022/04/11 06:14:50;;;;;;;6.10;2.80;;;;;;;;;;4956520;28;20207;-89
2022/04/11 06:17:23;;;;;;;2.43;2.23;;;;;;;;;;4959270;28;20209;-87
2022/04/11 06:19:51;;;;;;;1.53;1.53;;;;;;;;;;4959506;28;20207;-89
2022/04/11 06:22:20;;;;;;;1.10;1.10;;;;;;;;;;4959445;28;20306;-89
2022/04/11 06:24:50;;;;;;;2.80;2.20;;;;;;;;;;4959707;28;20207;-88
2022/04/11 06:27:18;;;;;;;2.20;2.10;;;;;;;;;;4959395;28;20217;-88
2022/04/11 06:29:47;;;;;;;2.40;2.20;;;;;;;;;;4959461;28;20269;-88
2022/04/11 06:32:16;;;;;;;2.20;2.10;;;;;;;;;;4959174;28;20207;-88
2022/04/11 06:34:46;;;;;;;3.37;3.27;;;;;;;;;;4959189;28;20214;-88
2022/04/11 06:37:14;;;;;;;3.47;3.17;;;;;;;;;;4959175;28;20212;-89
2022/04/11 06:39:42;;;;;;;1.87;1.73;;;;;;;;;;4959373;28;20199;-88
2022/04/11 06:42:11;;;;;;;2.07;1.97;;;;;;;;;;4958778;28;20207;-88
2022/04/11 06:44:39;;;;;;;6.27;4.23;;;;;;;;;;4959333;28;20286;-88
2022/04/11 06:47:08;;;;;;;6.33;4.00;;;;;;;;;;4977292;28;20207;-89
2022/04/11 06:49:42;;;;;;;1.07;1.07;;;;;;;;;;4958603;28;20222;-89
2022/04/11 06:52:16;;;;;;;5.17;3.50;;;;;;;;;;4958993;28;20211;-89
2022/04/11 06:54:52;;;;;;;3.43;3.23;;;;;;;;;;4959447;28;20207;-89
2022/04/11 06:57:25;;;;;;;4.77;4.37;;;;;;;;;;4958940;28;20250;-90
2022/04/11 06:59:55;;;;;;;6.17;5.50;;;;;;;;;;4959212;28;20224;-89
2022/04/11 07:02:30;;;;;;;6.43;5.80;;;;;;;;;;4958894;28;20216;-89
2022/04/11 07:05:02;;;;;;;2.87;2.33;;;;;;;;;;4958861;28;20211;-89
2022/04/11 07:07:37;;;;;;;2.80;2.60;;;;;;;;;;4958830;28;20208;-89
2022/04/11 07:10:09;;;;;;;12.60;6.17;;;;;;;;;;4958280;28;20227;-89
2022/04/11 07:12:39;;;;;;;6.53;5.83;;;;;;;;;;4958828;28;20204;-89
2022/04/11 07:15:26;;;;;;;;;;;;;;;;;;;;;
2022/04/11 07:18:49;;;;;;;5.47;4.47;;;;;;;;;;4955187;28;20343;-87
2022/04/11 07:21:18;;;;;;;7.27;5.33;;;;;;;;;;4957977;28;20215;-88
2022/04/11 07:23:49;;;;;;;6.10;4.63;;;;;;;;;;4958660;28;20314;-88
2022/04/11 07:26:17;;;;;;;5.53;5.03;;;;;;;;;;4944177;29;20216;-87
2022/04/11 07:28:47;;;;;;;6.07;5.43;;;;;;;;;;4970471;28;20263;-88
2022/04/11 07:31:16;;;;;;;8.03;5.90;;;;;;;;;;4966173;28;20218;-86
2022/04/11 07:33:47;;;;;;;6.20;5.53;;;;;;;;;;4956712;28;20212;-88
2022/04/11 07:36:18;;;;;;;2.00;1.90;;;;;;;;;;4956991;28;20216;-87
2022/04/11 07:38:46;;;;;;;10.37;7.67;;;;;;;;;;4954123;28;20256;-87
2022/04/11 07:41:16;;;;;;;18.03;5.07;;;;;;;;;;4957771;28;20205;-87
2022/04/11 07:43:45;;;;;;;7.20;5.93;;;;;;;;;;4944172;28;20268;-88
2022/04/11 07:46:14;;;;;;;4.30;3.77;;;;;;;;;;4963715;28;20206;-86
2022/04/11 07:48:43;;;;;;;8.97;6.80;;;;;;;;;;4958797;28;20210;-87
2022/04/11 07:51:12;;;;;;;8.07;7.33;;;;;;;;;;4953859;28;20228;-86
2022/04/11 07:53:40;;;;;;;5.67;4.80;;;;;;;;;;4953249;28;20295;-85
2022/04/11 07:56:09;;;;;;;2.33;2.13;;;;;;;;;;4955788;28;20204;-85
2022/04/11 07:58:39;;;;;;;0.80;0.80;;;;;;;;;;4957047;28;20201;-88
2022/04/11 08:01:07;;;;;;;10.27;6.53;;;;;;;;;;4955917;28;20196;-89
2022/04/11 08:03:35;;;;;;;3.43;3.13;;;;;;;;;;4956944;28;20216;-87
2022/04/11 08:06:04;;;;;;;8.77;6.30;;;;;;;;;;4955949;28;20220;-87
2022/04/11 08:08:32;;;;;;;2.30;2.17;;;;;;;;;;4965985;28;20216;-85
2022/04/11 08:11:01;;;;;;;4.47;3.73;;;;;;;;;;4954005;28;20214;-86
2022/04/11 08:13:29;;;;;;;7.57;6.77;;;;;;;;;;4950776;28;20212;-86
2022/04/11 08:15:59;;;;;;;9.20;6.73;;;;;;;;;;4956864;28;20239;-87
2022/04/11 08:18:28;;;;;;;9.20;5.23;;;;;;;;;;4951703;28;20501;-84
2022/04/11 08:20:57;;;;;;;6.23;4.97;;;;;;;;;;4974302;28;20201;-87
2022/04/11 08:23:25;;;;;;;8.23;5.17;;;;;;;;;;4947623;28;20259;-85
2022/04/11 08:25:54;;;;;;;3.27;3.00;;;;;;;;;;4954037;28;20204;-87
2022/04/11 08:28:23;;;;;;;1.97;1.87;;;;;;;;;;4972534;28;20215;-88
2022/04/11 08:30:51;;;;;;;8.13;2.93;;;;;;;;;;4954312;28;20220;-87
2022/04/11 08:33:21;;;;;;;1.63;1.53;;;;;;;;;;4968967;28;20185;-87
2022/04/11 08:35:50;;;;;;;5.87;4.60;;;;;;;;;;4956545;28;20201;-85
2022/04/11 08:38:18;;;;;;;5.90;5.37;;;;;;;;;;4971148;28;20197;-85
2022/04/11 08:40:46;;;;;;;3.80;3.33;;;;;;;;;;4965058;28;20193;-86
2022/04/11 08:43:15;;;;;;;7.73;4.73;;;;;;;;;;4973695;28;20189;-86
2022/04/11 08:45:44;;;;;;;4.97;3.63;;;;;;;;;;4967634;28;20216;-88
2022/04/11 08:48:13;;;;;;;6.90;5.43;;;;;;;;;;4952508;28;20197;-88
2022/04/11 08:50:42;;;;;;;4.97;2.97;;;;;;;;;;4965036;28;20232;-87
2022/04/11 08:53:11;;;;;;;6.57;5.93;;;;;;;;;;4942594;29;20248;-87
2022/04/11 08:55:39;;;;;;;3.53;2.93;;;;;;;;;;4950356;28;20216;-86
2022/04/11 08:58:08;;;;;;;8.63;4.20;;;;;;;;;;4958677;28;20201;-87
2022/04/11 09:00:36;;;;;;;6.23;4.93;;;;;;;;;;4952984;28;20205;-86
2022/04/11 09:03:06;;;;;;;6.17;4.33;;;;;;;;;;4958211;28;20313;-88
2022/04/11 09:05:34;;;;;;;8.40;5.93;;;;;;;;;;4954329;28;20228;-87
2022/04/11 09:08:04;;;;;;;6.97;4.70;;;;;;;;;;4969181;28;20214;-86
2022/04/11 09:10:36;;;;;;;6.20;3.90;;;;;;;;;;4956088;28;20262;-86
2022/04/11 09:13:06;;;;;;;6.67;4.83;;;;;;;;;;4959827;28;20215;-88
2022/04/11 09:15:39;;;;;;;4.90;3.43;;;;;;;;;;4975273;28;20209;-88
2022/04/11 09:18:08;;;;;;;5.17;4.60;;;;;;;;;;4953214;28;20206;-88
2022/04/11 09:20:37;;;;;;;5.30;4.03;;;;;;;;;;4957609;28;20211;-89
2022/04/11 09:23:18;;;;;;;6.23;5.63;;;;;;;;;;4950722;28;20286;-87
2022/04/11 09:25:46;;;;;;;2.97;2.47;;;;;;;;;;4961893;28;20203;-88
2022/04/11 09:28:15;;;;;;;7.47;5.40;;;;;;;;;;4952295;28;20293;-87
2022/04/11 09:30:44;;;;;;;7.73;5.13;;;;;;;;;;4970740;28;20206;-84
2022/04/11 09:33:13;;;;;;;2.30;2.20;;;;;;;;;;4948309;28;20203;-86
2022/04/11 09:35:42;;;;;;;5.90;4.67;;;;;;;;;;4943924;28;20213;-84
2022/04/11 09:38:15;;;;;;;2.83;2.63;;;;;;;;;;4955187;28;20216;-86
2022/04/11 09:40:45;;;;;;;6.87;3.50;;;;;;;;;;4959948;28;20211;-86
2022/04/11 09:43:16;;;;;;;7.40;4.63;;;;;;;;;;4946228;28;20262;-87
2022/04/11 09:45:46;;;;;;;4.43;4.03;;;;;;;;;;4964328;28;20209;-86
2022/04/11 09:48:18;;;;;;;6.00;4.53;;;;;;;;;;4955941;28;20211;-87
2022/04/11 09:50:47;;;;;;;5.27;4.77;;;;;;;;;;4952380;28;20217;-87
2022/04/11 09:53:18;;;;;;;7.53;5.17;;;;;;;;;;4969026;28;20223;-85
2022/04/11 09:55:47;;;;;;;5.00;4.37;;;;;;;;;;4952911;28;20205;-86
2022/04/11 09:58:16;;;;;;;6.40;5.47;;;;;;;;;;4953687;28;20208;-87
2022/04/11 10:00:45;;;;;;;5.83;3.97;;;;;;;;;;4975741;28;20205;-84
2022/04/11 10:03:14;;;;;;;7.87;5.43;;;;;;;;;;4976441;28;20212;-87
2022/04/11 10:05:43;;;;;;;6.20;4.23;;;;;;;;;;4965619;28;20291;-86
2022/04/11 10:08:13;;;;;;;5.00;4.40;;;;;;;;;;4959890;28;20244;-88
2022/04/11 10:10:43;;;;;;;10.93;4.30;;;;;;;;;;4956734;29;20204;-85
2022/04/11 10:13:12;;;;;;;6.13;4.73;;;;;;;;;;4952919;28;20261;-85
2022/04/11 10:15:42;;;;;;;6.17;4.03;;;;;;;;;;4968136;28;20202;-86
2022/04/11 10:18:12;;;;;;;7.03;6.17;;;;;;;;;;4959726;28;20211;-86
2022/04/11 10:20:42;;;;;;;6.70;5.60;;;;;;;;;;4958650;28;20298;-86
2022/04/11 10:23:32;;;;;;;5.90;4.03;;;;;;;;;;4967043;28;20281;-82
2022/04/11 10:26:03;;;;;;;8.37;6.47;;;;;;;;;;4964129;28;20199;-88
2022/04/11 10:28:32;;;;;;;6.63;4.90;;;;;;;;;;4953924;28;20205;-92
2022/04/11 10:31:05;;;;;;;6.30;3.93;;;;;;;;;;4963665;28;20227;-88
2022/04/11 10:33:46;;;;;;;5.00;4.13;;;;;;;;;;4958799;28;20289;-92
2022/04/11 10:36:28;;;;;;;5.47;4.67;;;;;;;;;;4962695;28;20220;-90
2022/04/11 10:39:15;;;;;;;7.97;5.90;;;;;;;;;;4955429;29;20201;-88
2022/04/11 10:42:03;;;;;;;8.60;6.57;;;;;;;;;;4950467;28;20204;-87
2022/04/11 10:44:33;;;;;;;6.27;5.53;;;;;;;;;;4948169;28;20195;-89
2022/04/11 10:47:17;;;;;;;9.13;5.80;;;;;;;;;;4946928;29;20212;-88
2022/04/11 10:50:06;;;;;;;5.87;5.07;;;;;;;;;;4955500;28;20218;-92
2022/04/11 10:52:36;;;;;;;7.50;5.57;;;;;;;;;;4910428;28;20266;-91
2022/04/11 10:55:06;;;;;;;8.73;6.27;;;;;;;;;;4955989;29;20204;-92
2022/04/11 10:57:41;;;;;;;7.97;5.73;;;;;;;;;;4956689;28;20273;-91
2022/04/11 11:00:17;;;;;;;8.17;6.83;;;;;;;;;;4962596;28;20273;-90
2022/04/11 11:03:09;;;;;;;8.63;5.57;;;;;;;;;;4963938;28;20255;-90
2022/04/11 11:05:39;;;;;;;8.73;6.70;;;;;;;;;;4954203;28;20294;-90
2022/04/11 11:08:29;;;;;;;5.73;5.13;;;;;;;;;;4954309;29;20199;-90
2022/04/11 11:10:58;;;;;;;5.57;4.80;;;;;;;;;;4950788;28;20225;-91
2022/04/11 11:13:33;;;;;;;9.43;6.37;;;;;;;;;;4956387;28;20236;-91
2022/04/11 11:16:23;;;;;;;6.67;5.30;;;;;;;;;;4947061;28;20206;-89
2022/04/11 11:19:13;;;;;;;9.30;6.90;;;;;;;;;;4935233;29;20202;-89
2022/04/11 11:21:57;;;;;;;5.43;4.93;;;;;;;;;;4933990;29;20211;-89
2022/04/11 11:24:26;;;;;;;7.87;6.77;;;;;;;;;;4952790;29;20321;-89
2022/04/11 11:26:57;;;;;;;4.90;3.23;;;;;;;;;;4954788;29;20214;-89
2022/04/11 11:29:26;;;;;;;6.10;5.30;;;;;;;;;;4955667;29;20295;-89
2022/04/11 11:31:57;;;;;;;8.27;6.40;;;;;;;;;;4955221;29;20212;-90
2022/04/11 11:34:26;;;;;;;6.97;5.57;;;;;;;;;;4939254;29;20269;-90
2022/04/11 11:36:59;;;;;;;10.70;8.13;;;;;;;;;;4956283;29;20291;-89
2022/04/11 11:39:34;;;;;;;8.83;7.30;;;;;;;;;;4938921;29;20316;-90
2022/04/11 11:42:03;;;;;;;6.27;5.20;;;;;;;;;;4938336;29;20218;-89
2022/04/11 11:44:32;;;;;;;5.17;4.57;;;;;;;;;;4938872;29;20268;-90
2022/04/11 11:47:04;;;;;;;10.47;7.43;;;;;;;;;;4938564;29;20205;-89
2022/04/11 11:49:39;;;;;;;7.77;6.97;;;;;;;;;;4955599;29;20203;-90
2022/04/11 11:52:11;;;;;;;23.57;9.10;;;;;;;;;;4938747;29;20211;-90
2022/04/11 11:54:40;;;;;;;6.27;5.63;;;;;;;;;;4954966;29;20208;-88
2022/04/11 11:57:19;;;;;;;8.07;7.13;;;;;;;;;;4955499;29;20215;-90
2022/04/11 11:59:48;;;;;;;6.53;5.93;;;;;;;;;;4954721;29;20203;-90
2022/04/11 12:05:16;;;;;;;9.23;6.00;;;;;;;;;;4955400;29;20201;-89
2022/04/11 12:07:44;;;;;;;8.23;7.43;;;;;;;;;;4938463;29;20297;-88
2022/04/11 12:10:13;;;;;;;12.20;8.30;;;;;;;;;;4938867;29;20208;-90
2022/04/11 12:12:44;;;;;;;8.27;7.33;;;;;;;;;;4938242;29;20229;-89
2022/04/11 12:15:14;;;;;;;8.30;7.03;;;;;;;;;;4938432;29;20264;-90
2022/04/11 12:17:45;;;;;;;8.90;6.83;;;;;;;;;;4938428;29;20260;-89
2022/04/11 12:20:17;;;;;;;10.73;6.93;;;;;;;;;;4954663;29;20212;-90
2022/04/11 12:23:01;;;;;;;7.03;6.43;;;;;;;;;;4938241;29;20236;-89
2022/04/11 12:25:31;;;;;;;8.17;6.90;;;;;;;;;;4955025;28;20239;-89
2022/04/11 12:28:13;;;;;;;11.80;5.77;;;;;;;;;;4938090;29;20214;-89
2022/04/11 12:30:44;;;;;;;7.53;6.83;;;;;;;;;;4938266;29;20222;-88
2022/04/11 12:33:28;;;;;;;3.63;3.33;;;;;;;;;;4938336;29;20220;-89
2022/04/11 12:36:06;;;;;;;5.37;4.07;;;;;;;;;;4938236;29;20208;-87
2022/04/11 12:38:39;;;;;;;13.43;8.10;;;;;;;;;;4954073;29;20215;-89
2022/04/11 12:41:09;;;;;;;6.87;6.17;;;;;;;;;;4955300;29;20209;-88
2022/04/11 12:43:52;;;;;;;6.03;5.43;;;;;;;;;;4954332;29;20200;-88
2022/04/11 12:46:24;;;;;;;3.30;3.00;;;;;;;;;;4954381;29;20215;-88
2022/04/11 12:48:57;;;;;;;8.50;7.00;;;;;;;;;;4954421;29;20212;-90
2022/04/11 12:51:27;;;;;;;7.70;7.00;;;;;;;;;;4954106;29;20209;-89
2022/04/11 12:54:01;;;;;;;11.43;6.80;;;;;;;;;;4938390;29;20323;-89
2022/04/11 12:56:34;;;;;;;10.87;6.23;;;;;;;;;;4937894;29;20204;-87
2022/04/11 12:59:03;;;;;;;10.43;8.83;;;;;;;;;;4938497;29;20208;-84
2022/04/11 13:02:01;;;;;;;8.10;7.30;;;;;;;;;;4954220;29;20208;-87
2022/04/11 13:04:31;;;;;;;8.13;6.20;;;;;;;;;;4915062;29;20264;-87
2022/04/11 13:07:06;;;;;;;9.37;6.13;;;;;;;;;;4945355;29;20316;-86
2022/04/11 13:09:37;;;;;;;10.53;9.53;;;;;;;;;;4937952;29;20212;-87
2022/04/11 13:12:09;;;;;;;9.13;8.23;;;;;;;;;;4937962;29;20251;-87
2022/04/11 13:14:38;;;;;;;6.53;5.93;;;;;;;;;;4955397;29;20247;-85
2022/04/11 13:19:54;;;;;;;8.20;7.43;;;;;;;;;;4937748;29;20212;-87
2022/04/11 13:22:23;;;;;;;7.20;6.50;;;;;;;;;;4953883;29;20243;-86
2022/04/11 13:24:52;;;;;;;11.77;9.97;;;;;;;;;;4955123;29;20221;-87
2022/04/11 13:27:21;;;;;;;7.27;5.80;;;;;;;;;;4938373;29;20324;-86
2022/04/11 13:29:50;;;;;;;10.50;7.10;;;;;;;;;;4938487;29;20219;-87
2022/04/11 13:32:38;;;;;;;8.97;6.47;;;;;;;;;;4937591;29;20231;-87
2022/04/11 13:35:09;;;;;;;9.00;7.07;;;;;;;;;;4954983;29;20231;-87
2022/04/11 13:37:38;;;;;;;6.93;6.17;;;;;;;;;;4940025;29;20208;-87
2022/04/11 13:40:07;;;;;;;8.00;6.33;;;;;;;;;;4941868;29;20202;-87
2022/04/11 13:42:36;;;;;;;11.10;9.53;;;;;;;;;;4958472;29;20208;-87
2022/04/11 13:45:24;;;;;;;6.07;5.27;;;;;;;;;;4941437;29;20209;-87
2022/04/11 13:47:53;;;;;;;7.70;6.40;;;;;;;;;;4958954;29;20216;-88
2022/04/11 13:50:23;;;;;;;11.13;8.67;;;;;;;;;;4941782;29;20203;-88
2022/04/11 13:52:52;;;;;;;11.87;6.53;;;;;;;;;;4958893;29;20317;-88
2022/04/11 13:55:20;;;;;;;8.10;6.33;;;;;;;;;;4941376;29;20227;-87
2022/04/11 13:57:49;;;;;;;7.63;4.73;;;;;;;;;;4941035;29;20216;-87
2022/04/11 14:00:18;;;;;;;8.60;7.23;;;;;;;;;;4941549;29;20212;-86
2022/04/11 14:02:47;;;;;;;8.67;6.63;;;;;;;;;;4957671;29;20216;-86
2022/04/11 14:05:17;;;;;;;6.77;4.90;;;;;;;;;;4941689;29;20232;-87
2022/04/11 14:07:49;;;;;;;11.27;5.40;;;;;;;;;;4941256;29;20208;-86
2022/04/11 14:10:18;;;;;;;7.67;5.87;;;;;;;;;;4957538;29;20208;-86
2022/04/11 14:12:46;;;;;;;7.07;6.33;;;;;;;;;;4957404;29;20204;-86
2022/04/11 14:15:15;;;;;;;8.03;5.93;;;;;;;;;;4940780;29;20228;-86
2022/04/11 14:17:43;;;;;;;5.97;5.37;;;;;;;;;;4941128;29;20264;-87
2022/04/11 14:20:13;;;;;;;6.83;5.17;;;;;;;;;;4941580;29;20216;-85
2022/04/11 14:22:42;;;;;;;7.00;4.70;;;;;;;;;;4940364;29;20282;-86
2022/04/11 14:25:12;;;;;;;7.07;4.80;;;;;;;;;;4941216;29;20204;-87
2022/04/11 14:28:00;;;;;;;5.90;4.33;;;;;;;;;;4940330;29;20204;-87
2022/04/11 14:30:39;;;;;;;9.83;4.47;;;;;;;;;;4940128;29;20208;-86
2022/04/11 14:33:08;;;;;;;4.33;3.93;;;;;;;;;;4940015;29;20231;-86
2022/04/11 14:35:39;;;;;;;5.03;4.40;;;;;;;;;;4940755;29;20232;-86
2022/04/11 14:38:07;;;;;;;6.17;5.33;;;;;;;;;;4942684;29;20217;-86
2022/04/11 14:40:37;;;;;;;6.67;4.43;;;;;;;;;;4957958;29;20255;-86
2022/04/11 14:43:06;;;;;;;6.33;4.60;;;;;;;;;;4941111;29;20210;-85
2022/04/11 14:45:35;;;;;;;4.90;4.50;;;;;;;;;;4940896;29;20247;-86
2022/04/11 14:48:04;;;;;;;6.37;3.90;;;;;;;;;;4940428;29;20215;-86
2022/04/11 14:50:32;;;;;;;3.73;3.43;;;;;;;;;;4940744;29;20204;-86
2022/04/11 14:53:01;;;;;;;10.20;5.30;;;;;;;;;;4956573;29;20261;-86
2022/04/11 14:55:45;;;;;;;7.13;4.30;;;;;;;;;;4939819;29;20227;-86
2022/04/11 14:58:13;;;;;;;6.17;5.57;;;;;;;;;;4939215;29;20208;-86
2022/04/11 15:00:42;;;;;;;8.13;4.90;;;;;;;;;;4940034;29;20205;-87
2022/04/11 15:03:11;;;;;;;7.40;6.67;;;;;;;;;;4956726;29;20193;-88
2022/04/11 15:05:39;;;;;;;4.40;3.70;;;;;;;;;;4939530;29;20225;-87
2022/04/11 15:08:08;;;;;;;3.73;3.33;;;;;;;;;;4956332;29;20204;-87
2022/04/11 15:10:37;;;;;;;6.07;4.27;;;;;;;;;;4956654;29;20209;-87